This is the latest recevied weather packets stored in our database for station/object NK7E-2. If no packets are shown the sender has not sent any weather packets the latest 10 day(s).
| Time | Temp. | Humidity | Pressure | Rain* | Wind** | Luminosity | Snow |
|---|---|---|---|---|---|---|---|
| 1777505117 | 26.11° C | 11% | 1020.3 hPa | 0 mm | - | - | - |
| 1777504517 | 26.11° C | 11% | 1020.6 hPa | 0 mm | - | - | - |
| 1777503917 | 26.11° C | 11% | 1020.5 hPa | 0 mm | - | - | - |
| 1777503317 | 26.11° C | 11% | 1020.8 hPa | 0 mm | - | - | - |
| 1777502717 | 26.67° C | 11% | 1021.2 hPa | 0 mm | - | - | - |
| 1777502117 | 26.11° C | 11% | 1021.1 hPa | 0 mm | - | - | - |
| 1777501517 | 26.11° C | 11% | 1021 hPa | 0 mm | - | - | - |
| 1777500917 | 26.67° C | 11% | 1021.4 hPa | 0 mm | - | - | - |
| 1777500317 | 26.67° C | 11% | 1021.6 hPa | 0 mm | - | - | - |
| 1777499717 | 27.22° C | 10% | 1022 hPa | 0 mm | - | - | - |
| 1777499117 | 26.67° C | 11% | 1021.9 hPa | 0 mm | - | - | - |
| 1777498517 | 26.67° C | 11% | 1022.1 hPa | 0 mm | - | - | - |
| 1777497917 | 26.11° C | 11% | 1022.3 hPa | 0 mm | - | - | - |
| 1777497317 | 26.11° C | 11% | 1022.3 hPa | 0 mm | - | - | - |
| 1777496717 | 26.67° C | 10% | 1022.7 hPa | 0 mm | - | - | - |
| 1777496117 | 26.67° C | 10% | 1023 hPa | 0 mm | - | - | - |
| 1777495517 | 26.67° C | 10% | 1023.1 hPa | 0 mm | - | - | - |
| 1777494917 | 26.67° C | 10% | 1023 hPa | 0 mm | - | - | - |
| 1777494317 | 26.67° C | 10% | 1023.2 hPa | 0 mm | - | - | - |
| 1777493717 | 26.11° C | 11% | 1023.4 hPa | 0 mm | - | - | - |
| 1777493117 | 26.11° C | 11% | 1023.3 hPa | 0 mm | - | - | - |
| 1777492517 | 26.67° C | 10% | 1023.4 hPa | 0 mm | - | - | - |
| 1777491917 | 26.67° C | 11% | 1023.4 hPa | 0 mm | - | - | - |
| 1777491317 | 25.56° C | 11% | 1023.3 hPa | 0 mm | - | - | - |
| 1777490717 | 25.56° C | 11% | 1023.5 hPa | 0 mm | - | - | - |
* Rain latest hour (hover to see other rain measurements)
** Current wind speed in m/s (hover to see current wind gust speed)